sensor_id;sensor_type;location;lat;lon;timestamp;temperature;humidity
50586;DHT22;36542;51.700;8.846;2023-04-07T00:01:56;6.60;99.90
50586;DHT22;36542;51.700;8.846;2023-04-07T00:04:21;6.50;99.90
50586;DHT22;36542;51.700;8.846;2023-04-07T00:06:47;6.50;99.90
50586;DHT22;36542;51.700;8.846;2023-04-07T00:09:12;6.50;99.90
50586;DHT22;36542;51.700;8.846;2023-04-07T00:11:38;6.50;99.90
50586;DHT22;36542;51.700;8.846;2023-04-07T00:14:03;6.50;99.90
50586;DHT22;36542;51.700;8.846;2023-04-07T00:16:29;6.50;99.90
50586;DHT22;36542;51.700;8.846;2023-04-07T00:18:54;6.40;99.90
50586;DHT22;36542;51.700;8.846;2023-04-07T00:21:20;6.30;99.90
50586;DHT22;36542;51.700;8.846;2023-04-07T00:23:45;6.30;99.90
50586;DHT22;36542;51.700;8.846;2023-04-07T00:26:12;6.30;99.90
50586;DHT22;36542;51.700;8.846;2023-04-07T00:28:37;6.30;99.90
50586;DHT22;36542;51.700;8.846;2023-04-07T00:31:03;6.30;99.90
50586;DHT22;36542;51.700;8.846;2023-04-07T00:33:28;6.20;99.90
50586;DHT22;36542;51.700;8.846;2023-04-07T00:35:54;6.20;99.90
50586;DHT22;36542;51.700;8.846;2023-04-07T00:38:19;6.20;99.90
50586;DHT22;36542;51.700;8.846;2023-04-07T00:40:45;6.10;99.90
50586;DHT22;36542;51.700;8.846;2023-04-07T00:43:10;6.10;99.90
50586;DHT22;36542;51.700;8.846;2023-04-07T00:45:36;6.10;99.90
50586;DHT22;36542;51.700;8.846;2023-04-07T00:48:02;6.10;99.90
50586;DHT22;36542;51.700;8.846;2023-04-07T00:50:28;6.10;99.90
50586;DHT22;36542;51.700;8.846;2023-04-07T00:52:53;6.10;99.90
50586;DHT22;36542;51.700;8.846;2023-04-07T00:55:22;6.00;99.90
50586;DHT22;36542;51.700;8.846;2023-04-07T00:57:47;6.00;99.90
50586;DHT22;36542;51.700;8.846;2023-04-07T01:00:13;6.00;99.90
50586;DHT22;36542;51.700;8.846;2023-04-07T01:02:46;6.00;99.90
50586;DHT22;36542;51.700;8.846;2023-04-07T01:05:17;6.00;99.90
50586;DHT22;36542;51.700;8.846;2023-04-07T01:07:57;6.00;99.90
50586;DHT22;36542;51.700;8.846;2023-04-07T01:10:50;6.00;99.90
50586;DHT22;36542;51.700;8.846;2023-04-07T01:15:50;6.00;99.90
50586;DHT22;36542;51.700;8.846;2023-04-07T01:18:21;6.00;99.90
50586;DHT22;36542;51.700;8.846;2023-04-07T01:20:50;6.00;99.90
50586;DHT22;36542;51.700;8.846;2023-04-07T01:26:23;5.90;99.90
50586;DHT22;36542;51.700;8.846;2023-04-07T01:31:32;5.90;99.90
50586;DHT22;36542;51.700;8.846;2023-04-07T01:33:59;5.90;99.90
50586;DHT22;36542;51.700;8.846;2023-04-07T01:36:27;5.80;99.90
50586;DHT22;36542;51.700;8.846;2023-04-07T01:38:53;5.80;99.90
50586;DHT22;36542;51.700;8.846;2023-04-07T01:41:21;5.80;99.90
50586;DHT22;36542;51.700;8.846;2023-04-07T01:43:48;5.70;99.90
50586;DHT22;36542;51.700;8.846;2023-04-07T01:46:14;5.70;99.90
50586;DHT22;36542;51.700;8.846;2023-04-07T01:48:41;5.70;99.90
50586;DHT22;36542;51.700;8.846;2023-04-07T01:51:07;5.70;99.90
50586;DHT22;36542;51.700;8.846;2023-04-07T01:53:34;5.60;99.90
50586;DHT22;36542;51.700;8.846;2023-04-07T01:56:02;5.60;99.90
50586;DHT22;36542;51.700;8.846;2023-04-07T01:58:28;5.60;99.90
50586;DHT22;36542;51.700;8.846;2023-04-07T02:00:53;5.60;99.90
50586;DHT22;36542;51.700;8.846;2023-04-07T02:03:35;5.60;99.90
50586;DHT22;36542;51.700;8.846;2023-04-07T02:06:07;5.60;99.90
50586;DHT22;36542;51.700;8.846;2023-04-07T02:08:35;5.60;99.90
50586;DHT22;36542;51.700;8.846;2023-04-07T02:11:04;5.60;99.90
50586;DHT22;36542;51.700;8.846;2023-04-07T02:13:33;5.60;99.90
50586;DHT22;36542;51.700;8.846;2023-04-07T02:16:00;5.60;99.90
50586;DHT22;36542;51.700;8.846;2023-04-07T02:18:27;5.50;99.90
50586;DHT22;36542;51.700;8.846;2023-04-07T02:20:55;5.50;99.90
50586;DHT22;36542;51.700;8.846;2023-04-07T02:23:20;5.60;99.90
50586;DHT22;36542;51.700;8.846;2023-04-07T02:25:46;5.50;99.90
50586;DHT22;36542;51.700;8.846;2023-04-07T02:28:12;5.60;99.90
50586;DHT22;36542;51.700;8.846;2023-04-07T02:30:37;5.50;99.90
50586;DHT22;36542;51.700;8.846;2023-04-07T02:33:03;5.50;99.90
50586;DHT22;36542;51.700;8.846;2023-04-07T02:35:28;5.50;99.90
50586;DHT22;36542;51.700;8.846;2023-04-07T02:37:54;5.50;99.90
50586;DHT22;36542;51.700;8.846;2023-04-07T02:40:19;5.60;99.90
50586;DHT22;36542;51.700;8.846;2023-04-07T02:42:45;5.50;99.90
50586;DHT22;36542;51.700;8.846;2023-04-07T02:45:11;5.50;99.90
50586;DHT22;36542;51.700;8.846;2023-04-07T02:47:37;5.50;99.90
50586;DHT22;36542;51.700;8.846;2023-04-07T02:50:03;5.50;99.90
50586;DHT22;36542;51.700;8.846;2023-04-07T02:52:28;5.50;99.90
50586;DHT22;36542;51.700;8.846;2023-04-07T02:54:54;5.50;99.90
50586;DHT22;36542;51.700;8.846;2023-04-07T02:57:20;5.50;99.90
50586;DHT22;36542;51.700;8.846;2023-04-07T02:59:45;5.50;99.90
50586;DHT22;36542;51.700;8.846;2023-04-07T03:02:11;5.50;99.90
50586;DHT22;36542;51.700;8.846;2023-04-07T03:04:36;5.50;99.90
50586;DHT22;36542;51.700;8.846;2023-04-07T03:07:02;5.50;99.90
50586;DHT22;36542;51.700;8.846;2023-04-07T03:09:27;5.50;99.90
50586;DHT22;36542;51.700;8.846;2023-04-07T03:11:53;5.50;99.90
50586;DHT22;36542;51.700;8.846;2023-04-07T03:14:18;5.50;99.90
50586;DHT22;36542;51.700;8.846;2023-04-07T03:16:44;5.50;99.90
50586;DHT22;36542;51.700;8.846;2023-04-07T03:19:10;5.50;99.90
50586;DHT22;36542;51.700;8.846;2023-04-07T03:21:36;5.50;99.90
50586;DHT22;36542;51.700;8.846;2023-04-07T03:24:03;5.50;99.90
50586;DHT22;36542;51.700;8.846;2023-04-07T03:26:28;5.50;99.90
50586;DHT22;36542;51.700;8.846;2023-04-07T03:28:54;5.50;99.90
50586;DHT22;36542;51.700;8.846;2023-04-07T03:31:19;5.40;99.90
50586;DHT22;36542;51.700;8.846;2023-04-07T03:33:45;5.40;99.90
50586;DHT22;36542;51.700;8.846;2023-04-07T03:36:10;5.40;99.90
50586;DHT22;36542;51.700;8.846;2023-04-07T03:38:36;5.40;99.90
50586;DHT22;36542;51.700;8.846;2023-04-07T03:41:01;5.40;99.90
50586;DHT22;36542;51.700;8.846;2023-04-07T03:43:27;5.40;99.90
50586;DHT22;36542;51.700;8.846;2023-04-07T03:45:53;5.40;99.90
50586;DHT22;36542;51.700;8.846;2023-04-07T03:48:18;5.40;99.90
50586;DHT22;36542;51.700;8.846;2023-04-07T03:50:44;5.40;99.90
50586;DHT22;36542;51.700;8.846;2023-04-07T03:53:11;5.40;99.90
50586;DHT22;36542;51.700;8.846;2023-04-07T03:55:38;5.40;99.90
50586;DHT22;36542;51.700;8.846;2023-04-07T03:58:04;5.40;99.90
50586;DHT22;36542;51.700;8.846;2023-04-07T04:00:30;5.30;99.90
50586;DHT22;36542;51.700;8.846;2023-04-07T04:02:58;5.40;99.90
50586;DHT22;36542;51.700;8.846;2023-04-07T04:05:23;5.40;99.90
50586;DHT22;36542;51.700;8.846;2023-04-07T04:07:48;5.30;99.90
50586;DHT22;36542;51.700;8.846;2023-04-07T04:10:19;5.30;99.90
50586;DHT22;36542;51.700;8.846;2023-04-07T04:12:46;5.40;99.90
50586;DHT22;36542;51.700;8.846;2023-04-07T04:15:12;5.40;99.90
50586;DHT22;36542;51.700;8.846;2023-04-07T04:17:37;5.30;99.90
50586;DHT22;36542;51.700;8.846;2023-04-07T04:20:03;5.30;99.90
50586;DHT22;36542;51.700;8.846;2023-04-07T04:22:29;5.30;99.90
50586;DHT22;36542;51.700;8.846;2023-04-07T04:24:54;5.30;99.90
50586;DHT22;36542;51.700;8.846;2023-04-07T04:27:20;5.30;99.90
50586;DHT22;36542;51.700;8.846;2023-04-07T04:29:46;5.30;99.90
50586;DHT22;36542;51.700;8.846;2023-04-07T04:32:11;5.40;99.90
50586;DHT22;36542;51.700;8.846;2023-04-07T04:34:38;5.30;99.90
50586;DHT22;36542;51.700;8.846;2023-04-07T04:37:05;5.40;99.90
50586;DHT22;36542;51.700;8.846;2023-04-07T04:39:30;5.40;99.90
50586;DHT22;36542;51.700;8.846;2023-04-07T04:41:56;5.40;99.90
50586;DHT22;36542;51.700;8.846;2023-04-07T04:44:21;5.30;99.90
50586;DHT22;36542;51.700;8.846;2023-04-07T04:46:47;5.30;99.90
50586;DHT22;36542;51.700;8.846;2023-04-07T04:49:13;5.30;99.90
50586;DHT22;36542;51.700;8.846;2023-04-07T04:51:40;5.40;99.90
50586;DHT22;36542;51.700;8.846;2023-04-07T04:54:05;5.40;99.90
50586;DHT22;36542;51.700;8.846;2023-04-07T04:56:31;5.40;99.90
50586;DHT22;36542;51.700;8.846;2023-04-07T04:58:56;5.30;99.90
50586;DHT22;36542;51.700;8.846;2023-04-07T05:01:22;5.40;99.90
50586;DHT22;36542;51.700;8.846;2023-04-07T05:03:47;5.40;99.90
50586;DHT22;36542;51.700;8.846;2023-04-07T05:06:13;5.40;99.90
50586;DHT22;36542;51.700;8.846;2023-04-07T05:08:38;5.40;99.90
50586;DHT22;36542;51.700;8.846;2023-04-07T05:11:04;5.40;99.90
50586;DHT22;36542;51.700;8.846;2023-04-07T05:13:29;5.40;99.90
50586;DHT22;36542;51.700;8.846;2023-04-07T05:15:55;5.40;99.90
50586;DHT22;36542;51.700;8.846;2023-04-07T05:18:21;5.40;99.90
50586;DHT22;36542;51.700;8.846;2023-04-07T05:20:47;5.40;99.90
50586;DHT22;36542;51.700;8.846;2023-04-07T05:23:13;5.40;99.90
50586;DHT22;36542;51.700;8.846;2023-04-07T05:25:39;5.50;99.90
50586;DHT22;36542;51.700;8.846;2023-04-07T05:28:04;5.50;99.90
50586;DHT22;36542;51.700;8.846;2023-04-07T05:30:30;5.50;99.90
50586;DHT22;36542;51.700;8.846;2023-04-07T05:32:56;5.50;99.90
50586;DHT22;36542;51.700;8.846;2023-04-07T05:35:21;5.60;99.90
50586;DHT22;36542;51.700;8.846;2023-04-07T05:37:47;5.60;99.90
50586;DHT22;36542;51.700;8.846;2023-04-07T05:40:12;5.60;99.90
50586;DHT22;36542;51.700;8.846;2023-04-07T05:42:38;5.70;99.90
50586;DHT22;36542;51.700;8.846;2023-04-07T05:45:04;5.70;99.90
50586;DHT22;36542;51.700;8.846;2023-04-07T05:47:29;5.70;99.90
50586;DHT22;36542;51.700;8.846;2023-04-07T05:49:55;5.80;99.90
50586;DHT22;36542;51.700;8.846;2023-04-07T05:52:21;5.90;99.90
50586;DHT22;36542;51.700;8.846;2023-04-07T05:54:46;5.90;99.90
50586;DHT22;36542;51.700;8.846;2023-04-07T05:57:12;6.00;99.90
50586;DHT22;36542;51.700;8.846;2023-04-07T05:59:38;6.00;99.90
50586;DHT22;36542;51.700;8.846;2023-04-07T06:02:03;6.10;99.90
50586;DHT22;36542;51.700;8.846;2023-04-07T06:04:29;6.20;99.90
50586;DHT22;36542;51.700;8.846;2023-04-07T06:06:55;6.40;99.90
50586;DHT22;36542;51.700;8.846;2023-04-07T06:09:21;6.60;99.90
50586;DHT22;36542;51.700;8.846;2023-04-07T06:11:46;6.90;99.90
50586;DHT22;36542;51.700;8.846;2023-04-07T06:14:12;7.00;99.90
50586;DHT22;36542;51.700;8.846;2023-04-07T06:16:38;7.10;99.90
50586;DHT22;36542;51.700;8.846;2023-04-07T06:19:03;7.10;99.90
50586;DHT22;36542;51.700;8.846;2023-04-07T06:21:29;7.20;99.90
50586;DHT22;36542;51.700;8.846;2023-04-07T06:23:55;7.20;99.90
50586;DHT22;36542;51.700;8.846;2023-04-07T06:26:21;7.30;99.90
50586;DHT22;36542;51.700;8.846;2023-04-07T06:28:46;7.40;99.90
50586;DHT22;36542;51.700;8.846;2023-04-07T06:31:12;7.20;99.90
50586;DHT22;36542;51.700;8.846;2023-04-07T06:33:37;7.10;99.90
50586;DHT22;36542;51.700;8.846;2023-04-07T06:36:03;7.10;99.90
50586;DHT22;36542;51.700;8.846;2023-04-07T06:38:29;7.20;99.90
50586;DHT22;36542;51.700;8.846;2023-04-07T06:40:54;7.30;99.90
50586;DHT22;36542;51.700;8.846;2023-04-07T06:43:20;7.20;99.90
50586;DHT22;36542;51.700;8.846;2023-04-07T06:45:45;7.10;99.90
50586;DHT22;36542;51.700;8.846;2023-04-07T06:48:11;7.00;99.90
50586;DHT22;36542;51.700;8.846;2023-04-07T06:50:36;6.80;99.90
50586;DHT22;36542;51.700;8.846;2023-04-07T06:53:05;6.70;99.90
50586;DHT22;36542;51.700;8.846;2023-04-07T06:55:31;6.60;99.90
50586;DHT22;36542;51.700;8.846;2023-04-07T06:57:56;6.80;99.90
50586;DHT22;36542;51.700;8.846;2023-04-07T07:00:22;6.80;99.90
50586;DHT22;36542;51.700;8.846;2023-04-07T07:02:48;6.90;99.90
50586;DHT22;36542;51.700;8.846;2023-04-07T07:05:14;6.80;99.90
50586;DHT22;36542;51.700;8.846;2023-04-07T07:07:39;6.70;99.90
50586;DHT22;36542;51.700;8.846;2023-04-07T07:10:09;6.80;99.90
50586;DHT22;36542;51.700;8.846;2023-04-07T07:12:37;6.90;99.90
50586;DHT22;36542;51.700;8.846;2023-04-07T07:15:03;6.90;99.90
50586;DHT22;36542;51.700;8.846;2023-04-07T07:17:29;7.00;99.90
50586;DHT22;36542;51.700;8.846;2023-04-07T07:19:54;6.90;99.90
50586;DHT22;36542;51.700;8.846;2023-04-07T07:22:20;7.00;99.90
50586;DHT22;36542;51.700;8.846;2023-04-07T07:24:45;6.90;99.90
50586;DHT22;36542;51.700;8.846;2023-04-07T07:27:11;7.00;99.90
50586;DHT22;36542;51.700;8.846;2023-04-07T07:29:36;7.10;99.90
50586;DHT22;36542;51.700;8.846;2023-04-07T07:32:01;7.20;99.90
50586;DHT22;36542;51.700;8.846;2023-04-07T07:34:27;7.20;99.90
50586;DHT22;36542;51.700;8.846;2023-04-07T07:36:52;7.20;99.90
50586;DHT22;36542;51.700;8.846;2023-04-07T07:39:18;7.20;99.90
50586;DHT22;36542;51.700;8.846;2023-04-07T07:41:43;7.30;99.90
50586;DHT22;36542;51.700;8.846;2023-04-07T07:44:09;7.40;99.90
50586;DHT22;36542;51.700;8.846;2023-04-07T07:46:35;7.40;99.90
50586;DHT22;36542;51.700;8.846;2023-04-07T07:49:00;7.40;99.90
50586;DHT22;36542;51.700;8.846;2023-04-07T07:51:26;7.60;99.90
50586;DHT22;36542;51.700;8.846;2023-04-07T07:53:52;7.70;99.90
50586;DHT22;36542;51.700;8.846;2023-04-07T07:56:17;7.80;99.90
50586;DHT22;36542;51.700;8.846;2023-04-07T07:58:43;7.80;99.90
50586;DHT22;36542;51.700;8.846;2023-04-07T08:01:09;7.90;99.90
50586;DHT22;36542;51.700;8.846;2023-04-07T08:03:34;7.80;99.90
50586;DHT22;36542;51.700;8.846;2023-04-07T08:06:00;7.90;99.90
50586;DHT22;36542;51.700;8.846;2023-04-07T08:08:26;7.90;99.90
50586;DHT22;36542;51.700;8.846;2023-04-07T08:10:51;8.00;99.90
50586;DHT22;36542;51.700;8.846;2023-04-07T08:13:17;8.20;99.90
50586;DHT22;36542;51.700;8.846;2023-04-07T08:15:42;8.30;99.90
50586;DHT22;36542;51.700;8.846;2023-04-07T08:18:07;8.40;99.90
50586;DHT22;36542;51.700;8.846;2023-04-07T08:20:33;8.40;99.90
50586;DHT22;36542;51.700;8.846;2023-04-07T08:22:59;8.30;99.90
50586;DHT22;36542;51.700;8.846;2023-04-07T08:25:27;8.20;99.90
50586;DHT22;36542;51.700;8.846;2023-04-07T08:27:53;8.10;99.90
50586;DHT22;36542;51.700;8.846;2023-04-07T08:30:18;8.10;99.90
50586;DHT22;36542;51.700;8.846;2023-04-07T08:32:45;8.00;99.90
50586;DHT22;36542;51.700;8.846;2023-04-07T08:35:11;7.90;99.90
50586;DHT22;36542;51.700;8.846;2023-04-07T08:37:37;8.00;99.90
50586;DHT22;36542;51.700;8.846;2023-04-07T08:40:04;8.00;99.90
50586;DHT22;36542;51.700;8.846;2023-04-07T08:42:31;8.00;99.90
50586;DHT22;36542;51.700;8.846;2023-04-07T08:45:01;8.10;99.90
50586;DHT22;36542;51.700;8.846;2023-04-07T08:47:27;8.20;99.90
50586;DHT22;36542;51.700;8.846;2023-04-07T08:49:56;8.30;99.90
50586;DHT22;36542;51.700;8.846;2023-04-07T08:52:32;8.30;99.90
50586;DHT22;36542;51.700;8.846;2023-04-07T08:54:59;8.30;99.90
50586;DHT22;36542;51.700;8.846;2023-04-07T08:57:31;8.30;99.90
50586;DHT22;36542;51.700;8.846;2023-04-07T09:00:01;8.20;99.90
50586;DHT22;36542;51.700;8.846;2023-04-07T09:02:34;8.10;99.90
50586;DHT22;36542;51.700;8.846;2023-04-07T09:05:01;8.20;99.90
50586;DHT22;36542;51.700;8.846;2023-04-07T09:07:27;8.20;99.90
50586;DHT22;36542;51.700;8.846;2023-04-07T09:09:54;8.10;99.90
50586;DHT22;36542;51.700;8.846;2023-04-07T09:12:19;8.00;99.90
50586;DHT22;36542;51.700;8.846;2023-04-07T09:14:45;7.90;99.90
50586;DHT22;36542;51.700;8.846;2023-04-07T09:17:11;8.00;99.90
50586;DHT22;36542;51.700;8.846;2023-04-07T09:19:37;8.00;99.90
50586;DHT22;36542;51.700;8.846;2023-04-07T09:22:03;8.30;99.90
50586;DHT22;36542;51.700;8.846;2023-04-07T09:24:29;8.40;99.90
50586;DHT22;36542;51.700;8.846;2023-04-07T09:27:12;8.50;99.90
50586;DHT22;36542;51.700;8.846;2023-04-07T09:29:39;8.60;99.90
50586;DHT22;36542;51.700;8.846;2023-04-07T09:32:05;8.50;99.90
50586;DHT22;36542;51.700;8.846;2023-04-07T09:34:33;8.40;99.90
50586;DHT22;36542;51.700;8.846;2023-04-07T09:36:59;8.40;99.90
50586;DHT22;36542;51.700;8.846;2023-04-07T09:39:25;8.50;99.90
50586;DHT22;36542;51.700;8.846;2023-04-07T09:41:51;8.50;99.90
50586;DHT22;36542;51.700;8.846;2023-04-07T09:44:21;8.60;99.90
50586;DHT22;36542;51.700;8.846;2023-04-07T09:46:51;8.60;99.90
50586;DHT22;36542;51.700;8.846;2023-04-07T09:49:17;8.80;99.90
50586;DHT22;36542;51.700;8.846;2023-04-07T09:54:41;8.80;99.90
50586;DHT22;36542;51.700;8.846;2023-04-07T09:57:08;8.80;99.90
50586;DHT22;36542;51.700;8.846;2023-04-07T09:59:37;9.00;99.90
50586;DHT22;36542;51.700;8.846;2023-04-07T10:02:03;9.10;99.90
50586;DHT22;36542;51.700;8.846;2023-04-07T10:04:28;9.20;99.90
50586;DHT22;36542;51.700;8.846;2023-04-07T10:06:55;9.30;99.90
50586;DHT22;36542;51.700;8.846;2023-04-07T10:09:23;9.40;99.90
50586;DHT22;36542;51.700;8.846;2023-04-07T10:11:50;9.50;99.90
50586;DHT22;36542;51.700;8.846;2023-04-07T10:14:17;9.60;99.90
50586;DHT22;36542;51.700;8.846;2023-04-07T10:16:43;9.90;99.90
50586;DHT22;36542;51.700;8.846;2023-04-07T10:19:09;10.40;99.90
50586;DHT22;36542;51.700;8.846;2023-04-07T10:21:38;10.40;99.90
50586;DHT22;36542;51.700;8.846;2023-04-07T10:24:27;10.50;99.90
50586;DHT22;36542;51.700;8.846;2023-04-07T10:26:59;10.40;99.90
50586;DHT22;36542;51.700;8.846;2023-04-07T10:29:32;10.30;99.90
50586;DHT22;36542;51.700;8.846;2023-04-07T10:32:00;10.10;99.90
50586;DHT22;36542;51.700;8.846;2023-04-07T10:34:54;10.20;99.90
50586;DHT22;36542;51.700;8.846;2023-04-07T10:37:23;10.30;99.90
50586;DHT22;36542;51.700;8.846;2023-04-07T10:40:25;10.40;99.90
50586;DHT22;36542;51.700;8.846;2023-04-07T10:42:43;10.70;99.90
50586;DHT22;36542;51.700;8.846;2023-04-07T10:45:09;11.10;99.90
50586;DHT22;36542;51.700;8.846;2023-04-07T10:50:21;11.20;99.90
50586;DHT22;36542;51.700;8.846;2023-04-07T10:55:41;10.80;99.90
50586;DHT22;36542;51.700;8.846;2023-04-07T10:58:31;10.80;99.90
50586;DHT22;36542;51.700;8.846;2023-04-07T11:03:33;11.20;99.90
50586;DHT22;36542;51.700;8.846;2023-04-07T11:06:13;11.10;99.90
50586;DHT22;36542;51.700;8.846;2023-04-07T11:08:43;11.40;99.90
50586;DHT22;36542;51.700;8.846;2023-04-07T11:11:14;11.40;99.90
50586;DHT22;36542;51.700;8.846;2023-04-07T11:13:43;11.60;99.90
50586;DHT22;36542;51.700;8.846;2023-04-07T11:16:10;11.60;99.90
50586;DHT22;36542;51.700;8.846;2023-04-07T11:18:37;11.60;99.90
50586;DHT22;36542;51.700;8.846;2023-04-07T11:21:03;11.90;99.90
50586;DHT22;36542;51.700;8.846;2023-04-07T11:23:40;12.60;99.90
50586;DHT22;36542;51.700;8.846;2023-04-07T11:26:07;13.40;99.90
50586;DHT22;36542;51.700;8.846;2023-04-07T11:28:36;13.70;99.90
50586;DHT22;36542;51.700;8.846;2023-04-07T11:31:09;14.40;99.90
50586;DHT22;36542;51.700;8.846;2023-04-07T11:33:35;14.10;99.90
50586;DHT22;36542;51.700;8.846;2023-04-07T11:36:05;13.30;99.90
50586;DHT22;36542;51.700;8.846;2023-04-07T11:38:35;13.20;99.90
50586;DHT22;36542;51.700;8.846;2023-04-07T11:41:13;12.40;99.90
50586;DHT22;36542;51.700;8.846;2023-04-07T11:43:39;12.00;99.90
50586;DHT22;36542;51.700;8.846;2023-04-07T11:46:11;12.20;99.90
50586;DHT22;36542;51.700;8.846;2023-04-07T11:48:38;12.20;99.90
50586;DHT22;36542;51.700;8.846;2023-04-07T11:51:05;12.10;99.90
50586;DHT22;36542;51.700;8.846;2023-04-07T11:53:35;12.20;99.90
50586;DHT22;36542;51.700;8.846;2023-04-07T11:56:12;12.30;99.90
50586;DHT22;36542;51.700;8.846;2023-04-07T11:58:51;12.10;99.90
50586;DHT22;36542;51.700;8.846;2023-04-07T12:01:17;12.10;99.90
50586;DHT22;36542;51.700;8.846;2023-04-07T12:04:03;11.90;99.90
50586;DHT22;36542;51.700;8.846;2023-04-07T12:06:33;12.00;99.90
50586;DHT22;36542;51.700;8.846;2023-04-07T12:09:01;12.00;99.90
50586;DHT22;36542;51.700;8.846;2023-04-07T12:11:26;12.30;99.90
50586;DHT22;36542;51.700;8.846;2023-04-07T12:13:53;12.70;99.90
50586;DHT22;36542;51.700;8.846;2023-04-07T12:16:19;12.60;99.90
50586;DHT22;36542;51.700;8.846;2023-04-07T12:18:46;12.70;99.90
50586;DHT22;36542;51.700;8.846;2023-04-07T12:21:11;13.00;99.90
50586;DHT22;36542;51.700;8.846;2023-04-07T12:23:37;13.00;99.90
50586;DHT22;36542;51.700;8.846;2023-04-07T12:26:02;13.30;99.90
50586;DHT22;36542;51.700;8.846;2023-04-07T12:28:28;13.50;99.90
50586;DHT22;36542;51.700;8.846;2023-04-07T12:30:54;13.90;99.90
50586;DHT22;36542;51.700;8.846;2023-04-07T12:33:20;14.10;99.90
50586;DHT22;36542;51.700;8.846;2023-04-07T12:35:46;14.00;99.90
50586;DHT22;36542;51.700;8.846;2023-04-07T12:38:12;14.20;99.90
50586;DHT22;36542;51.700;8.846;2023-04-07T12:40:37;14.00;99.90
50586;DHT22;36542;51.700;8.846;2023-04-07T12:43:04;14.30;99.90
50586;DHT22;36542;51.700;8.846;2023-04-07T12:45:30;14.30;99.90
50586;DHT22;36542;51.700;8.846;2023-04-07T12:47:56;14.10;99.90
50586;DHT22;36542;51.700;8.846;2023-04-07T12:50:22;13.50;99.90
50586;DHT22;36542;51.700;8.846;2023-04-07T12:52:49;13.30;99.90
50586;DHT22;36542;51.700;8.846;2023-04-07T12:55:15;13.40;99.90
50586;DHT22;36542;51.700;8.846;2023-04-07T12:57:41;13.30;99.90
50586;DHT22;36542;51.700;8.846;2023-04-07T13:00:07;13.60;99.90
50586;DHT22;36542;51.700;8.846;2023-04-07T13:02:32;13.80;99.90
50586;DHT22;36542;51.700;8.846;2023-04-07T13:05:01;13.80;99.90
50586;DHT22;36542;51.700;8.846;2023-04-07T13:07:26;14.10;99.90
50586;DHT22;36542;51.700;8.846;2023-04-07T13:09:52;14.30;99.90
50586;DHT22;36542;51.700;8.846;2023-04-07T13:12:18;14.50;99.90
50586;DHT22;36542;51.700;8.846;2023-04-07T13:14:44;14.50;99.90
50586;DHT22;36542;51.700;8.846;2023-04-07T13:17:10;14.30;99.90
50586;DHT22;36542;51.700;8.846;2023-04-07T13:19:36;14.40;99.90
50586;DHT22;36542;51.700;8.846;2023-04-07T13:22:01;14.50;99.90
50586;DHT22;36542;51.700;8.846;2023-04-07T13:24:27;14.70;99.90
50586;DHT22;36542;51.700;8.846;2023-04-07T13:26:53;14.50;99.90
50586;DHT22;36542;51.700;8.846;2023-04-07T13:29:18;15.00;99.90
50586;DHT22;36542;51.700;8.846;2023-04-07T13:31:45;15.30;99.90
50586;DHT22;36542;51.700;8.846;2023-04-07T13:34:11;15.10;99.90
50586;DHT22;36542;51.700;8.846;2023-04-07T13:36:36;14.90;99.90
50586;DHT22;36542;51.700;8.846;2023-04-07T13:39:02;14.80;99.90
50586;DHT22;36542;51.700;8.846;2023-04-07T13:41:27;15.20;99.90
50586;DHT22;36542;51.700;8.846;2023-04-07T13:43:53;15.30;99.90
50586;DHT22;36542;51.700;8.846;2023-04-07T13:46:18;15.60;99.90
50586;DHT22;36542;51.700;8.846;2023-04-07T13:48:44;15.80;99.90
50586;DHT22;36542;51.700;8.846;2023-04-07T13:51:10;15.70;99.90
50586;DHT22;36542;51.700;8.846;2023-04-07T13:53:36;15.50;99.90
50586;DHT22;36542;51.700;8.846;2023-04-07T13:56:01;15.80;99.90
50586;DHT22;36542;51.700;8.846;2023-04-07T13:58:28;15.30;99.90
50586;DHT22;36542;51.700;8.846;2023-04-07T14:00:54;15.30;99.90
50586;DHT22;36542;51.700;8.846;2023-04-07T14:03:20;15.10;99.90
50586;DHT22;36542;51.700;8.846;2023-04-07T14:05:46;14.60;99.90
50586;DHT22;36542;51.700;8.846;2023-04-07T14:08:12;14.10;99.90
50586;DHT22;36542;51.700;8.846;2023-04-07T14:10:38;13.70;99.90
50586;DHT22;36542;51.700;8.846;2023-04-07T14:13:04;13.50;99.90
50586;DHT22;36542;51.700;8.846;2023-04-07T14:15:29;13.30;99.90
50586;DHT22;36542;51.700;8.846;2023-04-07T14:17:55;13.10;99.90
50586;DHT22;36542;51.700;8.846;2023-04-07T14:20:21;13.00;99.90
50586;DHT22;36542;51.700;8.846;2023-04-07T14:22:46;12.80;99.90
50586;DHT22;36542;51.700;8.846;2023-04-07T14:25:12;12.70;99.90
50586;DHT22;36542;51.700;8.846;2023-04-07T14:27:37;12.50;99.90
50586;DHT22;36542;51.700;8.846;2023-04-07T14:30:03;12.40;99.90
50586;DHT22;36542;51.700;8.846;2023-04-07T14:32:29;12.30;99.90
50586;DHT22;36542;51.700;8.846;2023-04-07T14:34:57;12.40;99.90
50586;DHT22;36542;51.700;8.846;2023-04-07T14:37:23;12.40;99.90
50586;DHT22;36542;51.700;8.846;2023-04-07T14:39:51;12.40;99.90
50586;DHT22;36542;51.700;8.846;2023-04-07T14:42:17;12.50;99.90
50586;DHT22;36542;51.700;8.846;2023-04-07T14:44:43;12.80;99.90
50586;DHT22;36542;51.700;8.846;2023-04-07T14:47:08;13.20;99.90
50586;DHT22;36542;51.700;8.846;2023-04-07T14:49:34;13.40;99.90
50586;DHT22;36542;51.700;8.846;2023-04-07T14:51:59;13.30;99.90
50586;DHT22;36542;51.700;8.846;2023-04-07T14:54:25;13.20;99.90
50586;DHT22;36542;51.700;8.846;2023-04-07T14:56:51;13.30;99.90
50586;DHT22;36542;51.700;8.846;2023-04-07T14:59:16;13.50;99.90
50586;DHT22;36542;51.700;8.846;2023-04-07T15:01:42;13.90;99.90
50586;DHT22;36542;51.700;8.846;2023-04-07T15:04:07;13.80;99.90
50586;DHT22;36542;51.700;8.846;2023-04-07T15:06:33;14.00;99.90
50586;DHT22;36542;51.700;8.846;2023-04-07T15:08:58;14.00;99.90
50586;DHT22;36542;51.700;8.846;2023-04-07T15:11:24;14.00;99.90
50586;DHT22;36542;51.700;8.846;2023-04-07T15:13:50;14.10;99.90
50586;DHT22;36542;51.700;8.846;2023-04-07T15:16:15;14.20;99.90
50586;DHT22;36542;51.700;8.846;2023-04-07T15:18:43;14.30;99.90
50586;DHT22;36542;51.700;8.846;2023-04-07T15:21:09;14.60;99.90
50586;DHT22;36542;51.700;8.846;2023-04-07T15:23:36;14.70;99.90
50586;DHT22;36542;51.700;8.846;2023-04-07T15:26:06;14.70;99.90
50586;DHT22;36542;51.700;8.846;2023-04-07T15:28:32;14.90;99.90
50586;DHT22;36542;51.700;8.846;2023-04-07T15:30:58;15.50;99.90
50586;DHT22;36542;51.700;8.846;2023-04-07T15:33:24;15.20;99.90
50586;DHT22;36542;51.700;8.846;2023-04-07T15:35:50;14.80;99.90
50586;DHT22;36542;51.700;8.846;2023-04-07T15:38:16;14.70;99.90
50586;DHT22;36542;51.700;8.846;2023-04-07T15:40:41;14.50;99.90
50586;DHT22;36542;51.700;8.846;2023-04-07T15:43:07;14.20;99.90
50586;DHT22;36542;51.700;8.846;2023-04-07T15:45:38;13.80;99.90
50586;DHT22;36542;51.700;8.846;2023-04-07T15:48:04;13.70;99.90
50586;DHT22;36542;51.700;8.846;2023-04-07T15:50:29;13.60;99.90
50586;DHT22;36542;51.700;8.846;2023-04-07T15:52:56;13.50;99.90
50586;DHT22;36542;51.700;8.846;2023-04-07T15:55:21;13.10;99.90
50586;DHT22;36542;51.700;8.846;2023-04-07T15:57:47;13.10;99.90